createdAt,value
2022-11-22T00:01:34.842Z,10.07
2022-11-22T00:04:01.898Z,11.73
2022-11-22T00:06:29.025Z,10.40
2022-11-22T00:08:55.903Z,10.05
2022-11-22T00:11:22.768Z,9.15
2022-11-22T00:13:49.716Z,11.27
2022-11-22T00:16:16.600Z,11.20
2022-11-22T00:18:43.493Z,9.15
2022-11-22T00:21:10.439Z,7.93
2022-11-22T00:23:37.333Z,8.32
2022-11-22T00:26:04.277Z,7.47
2022-11-22T00:28:31.251Z,7.40
2022-11-22T00:30:58.106Z,6.95
2022-11-22T00:33:25.003Z,5.25
2022-11-22T00:35:51.895Z,7.78
2022-11-22T00:38:18.854Z,5.63
2022-11-22T00:40:45.723Z,6.03
2022-11-22T00:43:12.524Z,4.85
2022-11-22T00:45:42.083Z,4.20
2022-11-22T00:48:09.275Z,5.85
2022-11-22T00:50:36.234Z,5.22
2022-11-22T00:53:03.926Z,4.72
2022-11-22T00:55:30.810Z,3.90
2022-11-22T00:57:57.719Z,3.83
2022-11-22T01:00:24.654Z,3.30
2022-11-22T01:02:51.620Z,4.32
2022-11-22T01:05:18.701Z,3.33
2022-11-22T01:07:45.909Z,3.13
2022-11-22T01:10:12.872Z,2.80
2022-11-22T01:12:39.851Z,3.13
2022-11-22T01:15:07.272Z,2.67
2022-11-22T01:17:34.148Z,2.30
2022-11-22T01:20:01.098Z,2.72
2022-11-22T01:22:28.115Z,2.38
2022-11-22T01:24:54.978Z,3.70
2022-11-22T01:27:21.927Z,2.47
2022-11-22T01:29:48.833Z,3.10
2022-11-22T01:32:15.864Z,3.67
2022-11-22T01:34:42.948Z,3.42
2022-11-22T01:37:09.839Z,2.60
2022-11-22T01:39:36.815Z,2.03
2022-11-22T01:42:03.761Z,2.22
2022-11-22T01:44:33.022Z,3.08
2022-11-22T01:47:14.336Z,2.63
2022-11-22T01:50:16.640Z,2.05
2022-11-22T01:52:43.642Z,2.33
2022-11-22T01:55:12.853Z,1.80
2022-11-22T01:57:42.978Z,2.42
2022-11-22T02:00:16.738Z,2.45
2022-11-22T02:39:52.985Z,1.55
2022-11-22T02:46:33.401Z,1.30
2022-11-22T03:06:58.412Z,1.55
2022-11-22T03:09:52.304Z,5.95
2022-11-22T03:29:48.432Z,3.35
2022-11-22T03:51:23.000Z,2.03
2022-11-22T03:54:10.555Z,1.58
2022-11-22T04:00:19.395Z,1.90
2022-11-22T04:02:52.625Z,2.17
2022-11-22T04:05:47.666Z,1.90
2022-11-22T04:09:09.276Z,3.00
2022-11-22T04:11:37.972Z,3.33
2022-11-22T04:18:17.717Z,2.30
2022-11-22T04:26:49.591Z,3.28
2022-11-22T04:33:51.266Z,2.15
2022-11-22T04:36:18.515Z,2.47
2022-11-22T04:38:45.791Z,1.95
2022-11-22T04:41:19.902Z,2.10
2022-11-22T04:44:05.521Z,2.25
2022-11-22T04:47:44.888Z,1.63
2022-11-22T04:53:51.598Z,1.52
2022-11-22T04:56:22.121Z,2.55
2022-11-22T04:58:51.595Z,3.55
2022-11-22T05:01:19.122Z,2.15
2022-11-22T05:03:46.159Z,2.50
2022-11-22T05:06:14.826Z,5.00
2022-11-22T05:08:42.995Z,4.40
2022-11-22T05:11:10.381Z,2.85
2022-11-22T05:17:03.337Z,2.30
2022-11-22T05:19:30.632Z,0.93
2022-11-22T05:21:57.799Z,0.93
2022-11-22T05:24:24.817Z,1.45
2022-11-22T05:26:59.059Z,2.58
2022-11-22T05:29:28.663Z,13.25
2022-11-22T05:31:55.847Z,2.03
2022-11-22T05:34:22.820Z,1.33
2022-11-22T05:36:49.739Z,2.50
2022-11-22T05:39:16.921Z,6.05
2022-11-22T05:41:56.124Z,2.47
2022-11-22T05:44:24.096Z,1.73
2022-11-22T05:47:20.946Z,2.25
2022-11-22T05:49:51.577Z,1.30
2022-11-22T05:52:18.654Z,1.80
2022-11-22T05:54:45.913Z,2.78
2022-11-22T05:57:13.121Z,1.13
2022-11-22T05:59:49.882Z,1.38
2022-11-22T06:06:17.096Z,3.35
2022-11-22T06:08:47.010Z,2.05
2022-11-22T06:11:17.073Z,4.15
2022-11-22T06:13:45.616Z,2.80
2022-11-22T06:16:13.428Z,3.60
2022-11-22T06:18:41.119Z,3.33
2022-11-22T06:21:12.272Z,3.00
2022-11-22T06:23:42.299Z,1.88
2022-11-22T06:26:12.414Z,2.17
2022-11-22T06:28:40.413Z,5.07
2022-11-22T06:31:31.608Z,2.97
2022-11-22T06:34:00.355Z,1.50
2022-11-22T06:36:29.792Z,1.15
2022-11-22T06:39:11.506Z,1.02
2022-11-22T06:41:42.401Z,1.10
2022-11-22T06:44:15.952Z,1.35
2022-11-22T06:46:43.492Z,0.95
2022-11-22T06:49:31.933Z,0.77
2022-11-22T06:52:02.025Z,0.90
2022-11-22T06:54:37.922Z,0.55
2022-11-22T06:57:05.428Z,0.82
2022-11-22T07:00:03.724Z,1.60
2022-11-22T07:03:00.147Z,1.90
2022-11-22T07:06:02.969Z,2.73
2022-11-22T07:09:12.570Z,2.35
2022-11-22T07:11:56.786Z,0.40
2022-11-22T07:14:42.571Z,0.98
2022-11-22T07:17:17.305Z,0.97
2022-11-22T07:20:03.120Z,1.83
2022-11-22T07:22:44.560Z,2.05
2022-11-22T07:25:26.616Z,1.42
2022-11-22T07:28:06.726Z,2.10
2022-11-22T07:30:33.855Z,2.05
2022-11-22T07:33:00.859Z,0.63
2022-11-22T07:35:28.625Z,1.75
2022-11-22T07:38:04.015Z,0.70
2022-11-22T07:40:31.173Z,1.55
2022-11-22T07:43:05.444Z,1.80
2022-11-22T07:45:35.584Z,0.73
2022-11-22T07:48:02.746Z,0.73
2022-11-22T07:50:30.184Z,0.20
2022-11-22T07:52:58.957Z,1.38
2022-11-22T07:55:34.327Z,1.00
2022-11-22T07:58:12.793Z,1.83
2022-11-22T08:00:48.346Z,1.10
2022-11-22T08:03:27.176Z,1.75
2022-11-22T08:06:08.933Z,2.38
2022-11-22T08:08:39.005Z,1.75
2022-11-22T08:14:06.822Z,0.70
2022-11-22T08:16:39.688Z,0.95
2022-11-22T08:22:48.400Z,0.22
2022-11-22T08:25:30.076Z,0.82
2022-11-22T08:28:17.850Z,0.75
2022-11-22T08:30:45.468Z,0.77
2022-11-22T08:34:03.638Z,0.60
2022-11-22T08:36:31.539Z,0.82
2022-11-22T08:38:59.109Z,1.92
2022-11-22T08:41:34.016Z,1.02
2022-11-22T08:44:10.967Z,0.32
2022-11-22T08:46:38.604Z,1.15
2022-11-22T08:49:45.765Z,1.08
2022-11-22T08:52:42.259Z,1.80
2022-11-22T08:55:25.665Z,0.60
2022-11-22T09:04:03.741Z,2.05
2022-11-22T09:11:09.082Z,0.85
2022-11-22T09:17:46.420Z,1.10
2022-11-22T09:20:32.426Z,1.67
2022-11-22T09:23:01.600Z,1.15
2022-11-22T09:26:21.588Z,0.60
2022-11-22T09:29:13.450Z,0.95
2022-11-22T09:31:42.053Z,0.40
2022-11-22T09:34:09.321Z,0.90
2022-11-22T09:36:36.589Z,1.20
2022-11-22T09:39:06.911Z,0.75
2022-11-22T09:42:02.795Z,1.65
2022-11-22T09:44:47.970Z,0.57
2022-11-22T09:47:37.747Z,0.55
2022-11-22T09:50:53.167Z,0.50
2022-11-22T09:53:44.718Z,0.85
2022-11-22T10:02:17.434Z,0.60
2022-11-22T10:05:35.779Z,1.55
2022-11-22T10:08:18.334Z,0.90
2022-11-22T10:10:45.333Z,1.17
2022-11-22T10:13:19.657Z,0.77
2022-11-22T10:15:57.228Z,1.33
2022-11-22T10:18:54.640Z,1.20
2022-11-22T10:21:21.796Z,1.67
2022-11-22T10:23:48.884Z,0.85
2022-11-22T10:26:32.841Z,1.67
2022-11-22T10:29:30.452Z,1.13
2022-11-22T10:32:11.530Z,1.10
2022-11-22T10:35:18.211Z,1.23
2022-11-22T10:38:00.003Z,0.77
2022-11-22T10:40:45.324Z,1.70
2022-11-22T10:43:22.516Z,1.40
2022-11-22T10:45:58.414Z,1.85
2022-11-22T10:49:00.817Z,8.07
2022-11-22T10:54:31.549Z,1.25
2022-11-22T10:57:17.092Z,0.95
2022-11-22T11:00:05.422Z,0.93
2022-11-22T11:02:54.166Z,1.70
2022-11-22T11:05:26.968Z,1.77
2022-11-22T11:08:09.215Z,0.90
2022-11-22T11:10:44.281Z,2.70
2022-11-22T11:13:25.169Z,1.15
2022-11-22T11:15:56.380Z,1.55
2022-11-22T11:18:47.679Z,1.10
2022-11-22T11:21:26.954Z,1.02
2022-11-22T11:23:53.993Z,1.58
2022-11-22T11:26:27.446Z,1.95
2022-11-22T11:29:51.812Z,2.50
2022-11-22T11:32:33.314Z,1.58
2022-11-22T12:29:17.568Z,5.10
2022-11-22T12:31:48.542Z,5.30
2022-11-22T12:34:37.259Z,4.35
2022-11-22T12:37:18.401Z,4.38
2022-11-22T12:39:53.271Z,4.30
2022-11-22T12:42:30.445Z,3.22
2022-11-22T12:45:10.205Z,5.03
2022-11-22T12:47:44.670Z,3.53
2022-11-22T12:50:38.296Z,4.68
2022-11-22T12:53:16.695Z,6.07
2022-11-22T12:56:35.523Z,5.07
2022-11-22T12:59:11.444Z,6.00
2022-11-22T13:01:44.722Z,3.45
2022-11-22T13:05:00.983Z,3.08
2022-11-22T13:08:21.629Z,3.75
2022-11-22T13:11:40.397Z,2.75
2022-11-22T13:14:30.922Z,4.60
2022-11-22T13:16:59.153Z,4.88
2022-11-22T13:19:28.063Z,7.20
2022-11-22T13:22:22.954Z,6.85
2022-11-22T13:25:02.422Z,8.52
2022-11-22T13:27:31.003Z,4.40
2022-11-22T13:30:00.981Z,5.90
2022-11-22T13:32:35.221Z,7.55
2022-11-22T13:35:14.199Z,6.45
2022-11-22T13:38:10.865Z,3.95
2022-11-22T13:40:53.520Z,4.30
2022-11-22T13:43:23.662Z,5.93
2022-11-22T13:45:54.782Z,9.50
2022-11-22T13:48:40.512Z,7.30
2022-11-22T13:51:08.824Z,6.68
2022-11-22T13:53:38.009Z,5.65
2022-11-22T13:56:17.056Z,4.07
2022-11-22T13:59:13.521Z,4.95
2022-11-22T14:01:40.555Z,5.45
2022-11-22T14:04:16.782Z,7.30
2022-11-22T14:07:28.850Z,10.35
2022-11-22T14:10:02.293Z,8.45
2022-11-22T14:13:05.767Z,6.05
2022-11-22T14:16:32.505Z,3.45
2022-11-22T14:19:36.317Z,3.53
2022-11-22T14:22:47.907Z,2.90
2022-11-22T14:25:38.722Z,4.25
2022-11-22T14:28:34.553Z,3.50
2022-11-22T14:31:23.427Z,4.47
2022-11-22T14:34:17.510Z,2.63
2022-11-22T14:36:45.874Z,5.45
2022-11-22T14:39:56.211Z,4.80
2022-11-22T14:42:43.900Z,3.00
2022-11-22T14:45:11.005Z,3.90
2022-11-22T14:47:53.392Z,3.13
2022-11-22T14:50:31.716Z,4.90
2022-11-22T14:53:18.934Z,6.47
2022-11-22T14:55:47.891Z,4.28
2022-11-22T14:58:25.721Z,4.15
2022-11-22T15:01:17.596Z,7.43
2022-11-22T15:09:17.049Z,3.83
2022-11-22T15:09:23.612Z,6.80
2022-11-22T15:11:25.838Z,2.23
2022-11-22T15:57:31.273Z,9.80
2022-11-22T15:59:58.935Z,10.60
2022-11-22T16:02:32.011Z,13.40
2022-11-22T16:06:07.398Z,8.90
2022-11-22T16:07:50.286Z,5.55
2022-11-22T16:10:24.214Z,13.77
2022-11-22T16:12:52.550Z,12.70
2022-11-22T16:15:30.156Z,15.45
2022-11-22T16:18:13.200Z,8.43
2022-11-22T16:21:05.179Z,7.60
2022-11-22T16:26:39.283Z,23.60
2022-11-22T16:29:29.291Z,19.33
2022-11-22T16:32:21.005Z,10.35
2022-11-22T16:35:28.108Z,19.75
2022-11-22T16:37:51.022Z,23.33
2022-11-22T16:40:25.162Z,17.30
2022-11-22T16:43:24.869Z,17.88
2022-11-22T16:48:52.746Z,18.38
2022-11-22T16:51:34.445Z,12.63
2022-11-22T16:54:31.191Z,13.98
2022-11-22T16:57:21.925Z,13.18
2022-11-22T16:59:58.799Z,15.10
2022-11-22T17:02:42.550Z,12.77
2022-11-22T17:05:24.953Z,14.32
2022-11-22T17:07:54.225Z,9.77
2022-11-22T17:10:22.798Z,6.93
2022-11-22T17:12:49.764Z,10.43
2022-11-22T17:15:19.178Z,10.85
2022-11-22T17:17:46.090Z,14.35
2022-11-22T17:20:14.525Z,12.13
2022-11-22T17:22:43.918Z,11.75
2022-11-22T17:25:14.075Z,15.05
2022-11-22T17:27:41.196Z,12.23
2022-11-22T17:30:08.929Z,15.32
2022-11-22T17:32:37.371Z,12.43
2022-11-22T17:35:04.694Z,12.70
2022-11-22T17:37:31.703Z,11.15
2022-11-22T17:39:58.559Z,12.45
2022-11-22T17:42:25.445Z,16.73
2022-11-22T17:44:52.377Z,12.68
2022-11-22T17:47:19.248Z,15.05
2022-11-22T17:49:46.117Z,15.00
2022-11-22T17:52:13.048Z,18.65
2022-11-22T17:54:40.031Z,17.02
2022-11-22T17:57:09.710Z,11.45
2022-11-22T17:59:36.682Z,8.30
2022-11-22T18:02:03.727Z,12.07
2022-11-22T18:04:30.919Z,24.95
2022-11-22T18:06:58.201Z,18.33
2022-11-22T18:09:25.205Z,15.77
2022-11-22T18:11:52.529Z,13.43
2022-11-22T18:14:19.503Z,13.93
2022-11-22T18:16:46.385Z,15.65
2022-11-22T18:19:13.389Z,11.32
2022-11-22T18:21:40.274Z,18.27
2022-11-22T18:24:09.774Z,20.23
2022-11-22T18:26:41.132Z,21.67
2022-11-22T18:31:56.611Z,15.43
2022-11-22T18:34:24.144Z,23.08
2022-11-22T18:37:00.873Z,17.27
2022-11-22T18:39:34.509Z,19.42
2022-11-22T18:42:02.444Z,16.80
2022-11-22T18:44:29.487Z,20.35
2022-11-22T18:46:56.479Z,12.60
2022-11-22T18:49:23.421Z,14.88
2022-11-22T18:51:50.440Z,13.88
2022-11-22T18:54:18.314Z,11.40
2022-11-22T18:56:45.308Z,10.15
2022-11-22T18:59:12.857Z,8.68
2022-11-22T19:01:40.860Z,10.43
2022-11-22T19:04:08.395Z,11.52
2022-11-22T19:06:35.878Z,13.43
2022-11-22T19:09:02.825Z,10.88
2022-11-22T19:11:31.760Z,10.73
2022-11-22T19:13:58.968Z,8.35
2022-11-22T19:16:29.505Z,9.90
2022-11-22T19:18:57.467Z,12.82
2022-11-22T19:21:27.884Z,13.30
2022-11-22T19:23:55.574Z,10.13
2022-11-22T19:26:25.226Z,10.77
2022-11-22T19:28:55.761Z,9.68
2022-11-22T19:31:29.350Z,8.83
2022-11-22T19:33:57.035Z,10.57
2022-11-22T19:36:32.128Z,12.35
2022-11-22T19:39:02.051Z,10.38
2022-11-22T19:41:29.174Z,11.80
2022-11-22T19:43:56.769Z,11.88
2022-11-22T19:46:24.484Z,16.60
2022-11-22T19:48:56.623Z,15.73
2022-11-22T19:51:24.891Z,14.30
2022-11-22T19:53:59.638Z,12.27
2022-11-22T19:56:30.327Z,10.45
2022-11-22T19:58:58.796Z,12.32
2022-11-22T20:01:27.895Z,10.80
2022-11-22T20:03:57.415Z,15.30
2022-11-22T20:06:24.900Z,12.98
2022-11-22T20:08:54.938Z,11.85
2022-11-22T20:11:21.884Z,13.68
2022-11-22T20:13:50.431Z,19.80
2022-11-22T20:16:25.741Z,8.48
2022-11-22T20:19:07.412Z,8.25
2022-11-22T20:21:36.172Z,8.40
2022-11-22T20:24:04.208Z,10.75
2022-11-22T20:26:32.741Z,9.57
2022-11-22T20:29:07.826Z,8.43
2022-11-22T20:31:39.213Z,7.00
2022-11-22T20:34:06.819Z,6.93
2022-11-22T20:36:35.438Z,4.93
2022-11-22T20:39:06.996Z,8.35
2022-11-22T20:41:38.092Z,7.43
2022-11-22T20:44:11.249Z,5.97
2022-11-22T20:46:38.538Z,10.23
2022-11-22T20:49:05.499Z,9.18
2022-11-22T20:51:35.913Z,6.20
2022-11-22T20:54:03.025Z,8.70
2022-11-22T20:56:30.196Z,7.57
2022-11-22T20:58:57.060Z,9.60
2022-11-22T21:01:26.247Z,9.90
2022-11-22T21:03:54.510Z,7.15
2022-11-22T21:06:24.288Z,7.80
2022-11-22T21:08:51.453Z,10.43
2022-11-22T21:11:23.937Z,5.90
2022-11-22T21:13:51.927Z,7.50
2022-11-22T21:16:25.126Z,7.03
2022-11-22T21:19:05.137Z,6.85
2022-11-22T21:21:38.236Z,12.55
2022-11-22T21:24:06.780Z,21.55
2022-11-22T21:26:36.079Z,58.15
2022-11-22T21:29:04.887Z,34.72
2022-11-22T21:31:36.853Z,20.63
2022-11-22T21:36:30.767Z,10.68
2022-11-22T21:38:57.693Z,9.85
2022-11-22T21:41:41.101Z,5.85
2022-11-22T21:44:09.631Z,9.50
2022-11-22T21:46:36.888Z,8.13
2022-11-22T21:49:09.361Z,11.57
2022-11-22T21:51:36.495Z,11.98
2022-11-22T21:54:06.718Z,11.73
2022-11-22T21:56:33.732Z,8.95
2022-11-22T21:59:00.700Z,9.52
2022-11-22T22:01:27.867Z,13.60
2022-11-22T22:03:55.024Z,6.22
2022-11-22T22:06:22.501Z,5.70
2022-11-22T22:08:49.888Z,9.02
2022-11-22T22:11:17.238Z,6.28
2022-11-22T22:13:44.198Z,4.05
2022-11-22T22:16:23.605Z,5.63
2022-11-22T22:18:50.918Z,3.88
2022-11-22T22:21:19.112Z,4.97
2022-11-22T22:23:46.709Z,4.07
2022-11-22T22:26:16.551Z,4.90
2022-11-22T22:28:45.452Z,5.10
2022-11-22T22:31:21.464Z,5.13
2022-11-22T22:33:51.562Z,5.40
2022-11-22T22:36:18.665Z,7.88
2022-11-22T22:38:45.718Z,16.23
2022-11-22T22:41:13.692Z,16.67
2022-11-22T22:43:43.506Z,8.32
2022-11-22T22:46:13.764Z,5.85
2022-11-22T22:48:41.162Z,17.17
2022-11-22T22:51:12.579Z,5.68
2022-11-22T22:53:39.774Z,4.22
2022-11-22T22:56:07.841Z,6.72
2022-11-22T22:58:35.214Z,4.35
2022-11-22T23:01:29.763Z,5.47
2022-11-22T23:03:58.755Z,6.15
2022-11-22T23:06:28.088Z,4.90
2022-11-22T23:08:55.697Z,3.38
2022-11-22T23:11:49.121Z,3.58
2022-11-22T23:14:18.941Z,5.25
2022-11-22T23:16:45.917Z,8.82
2022-11-22T23:19:12.801Z,5.82
2022-11-22T23:21:39.677Z,10.00
2022-11-22T23:24:07.694Z,18.83
2022-11-22T23:26:34.788Z,14.20
2022-11-22T23:29:01.694Z,15.15
2022-11-22T23:31:28.575Z,13.50
2022-11-22T23:33:55.420Z,22.23
2022-11-22T23:36:23.399Z,26.67
2022-11-22T23:38:50.265Z,15.10
2022-11-22T23:41:22.375Z,5.90
2022-11-22T23:43:54.388Z,5.18
2022-11-22T23:46:22.518Z,7.03
2022-11-22T23:48:54.238Z,5.05
2022-11-22T23:51:21.905Z,5.32
2022-11-22T23:53:48.941Z,5.65
2022-11-22T23:56:21.803Z,6.60
2022-11-22T23:58:49.454Z,6.97
